This demonstration page uses our WeatherBlox Daily Observations layout. Learn more.

39.29038, -76.61219

Hourly Observations for December 23, 2017

Temp ( °F °C ) Dew Point ( °F °C ) Humidity (%) Winds ( mph kmh ) Pressure ( in mb ) Visibility ( mi km ) Precip ( " mm )
12:54 am 00:54 undefined 48 8.9 40 4.4 74 74 undefined N/A 30.03 1017 N/A 0 0
1:54 am 01:54 undefined 47 8.3 42 5.6 83 83 undefined N/A 30.06 1018 N/A 0 0
2:54 am 02:54 undefined 47 8.3 44 6.7 90 90 undefined N/A 30 1016 N/A 0.04 1.016
3:54 am 03:54 undefined 46 7.8 44 6.7 93 93 undefined N/A 30 1016 N/A 0.02 0.508
4:54 am 04:54 undefined 46 7.8 44 6.7 93 93 undefined N/A 29.97 1015 N/A 0 0
5:54 am 05:54 undefined 47 8.3 45 7.2 93 93 undefined N/A 29.97 1015 N/A 0 0
6:54 am 06:54 undefined 47 8.3 45 7.2 93 93 undefined N/A 29.91 1013 N/A 0 0
7:54 am 07:54 undefined 48 8.9 46 7.8 93 93 undefined N/A 29.88 1012 N/A 0 0
8:54 am 08:54 undefined 49 9.4 47 8.3 93 93 undefined N/A 29.85 1011 N/A 0 0
9:54 am 09:54 undefined 50 10 47 8.3 89 89 undefined N/A 29.83 1010 N/A 0 0
10:54 am 10:54 undefined 51 10.6 48 8.9 89 89 undefined N/A 29.8 1009 N/A 0.01 0.254
11:54 am 11:54 undefined 51 10.6 49 9.4 92 92 undefined N/A 29.77 1008 N/A 0.03 0.762
12:54 pm 12:54 undefined 58 14.4 54 12.2 87 87 undefined N/A 29.71 1006 N/A 0.03 0.762
1:54 pm 13:54 undefined 62 16.7 56 13.3 80 80 undefined N/A 29.65 1004 N/A 0.03 0.762
2:54 pm 14:54 undefined 64 17.8 57 13.9 78 78 undefined N/A 29.65 1004 N/A 0 0
3:54 pm 15:54 undefined 64 17.8 57 13.9 78 78 undefined N/A 29.65 1004 N/A 0.01 0.254
4:54 pm 16:54 undefined 65 18.3 58 14.4 78 78 undefined N/A 29.68 1005 N/A 0 0
5:54 pm 17:54 undefined 64 17.8 59 15 84 84 undefined N/A 29.68 1005 N/A 0 0
6:54 pm 18:54 undefined 57 13.9 52 11.1 83 83 undefined N/A 29.74 1007 N/A 0.08 2.032
7:54 pm 19:54 undefined 52 11.1 45 7.2 77 77 undefined N/A 29.8 1009 N/A 0 0
8:54 pm 20:54 undefined 52 11.1 44 6.7 75 75 undefined N/A 29.91 1013 N/A 0 0
9:54 pm 21:54 undefined 51 10.6 42 5.6 71 71 undefined N/A 29.94 1014 N/A 0 0
10:54 pm 22:54 undefined 50 10 40 4.4 68 68 undefined N/A 30 1016 N/A 0 0
11:54 pm 23:54 undefined 48 8.9 37 2.8 66 66 undefined N/A 30.03 1017 N/A 0 0

Powered by AerisWeather